Wetterdaten: Woche 26.04.04 - 02.05.04 (KW18)
Datum Zeit Temperatur Luftfeuchte Luftdruck Regenmenge Wind Richtung Taupunkt Windchill
26.04.2004 00:00 8.4 C 66 % 1024.1 hPa 0.0 l/m 1.9 km/h (1 Bft) N-NO 2.5 C 8.3 C
26.04.2004 01:00 7.6 C 68 % 1023.9 hPa 0.0 l/m 2.2 km/h (1 Bft) NO 2.1 C 7.4 C
26.04.2004 02:00 7.0 C 73 % 1023.3 hPa 0.0 l/m 1.1 km/h (0 Bft) N-NO 2.4 C 6.9 C
26.04.2004 03:00 6.4 C 75 % 1022.7 hPa 0.0 l/m 0.4 km/h (0 Bft) NO 2.3 C 6.4 C
26.04.2004 04:00 6.0 C 79 % 1022.4 hPa 0.0 l/m 0.3 km/h (0 Bft) N-NO 2.5 C 6.0 C
26.04.2004 05:00 5.9 C 76 % 1022.3 hPa 0.0 l/m 0.3 km/h (0 Bft) N-NO 2.0 C 5.9 C
26.04.2004 06:00 6.2 C 70 % 1021.6 hPa 0.0 l/m 0.8 km/h (0 Bft) N-NO 1.2 C 6.2 C
26.04.2004 07:00 6.8 C 68 % 1021.2 hPa 0.0 l/m 0.7 km/h (0 Bft) N 1.4 C 6.8 C
26.04.2004 08:00 8.6 C 63 % 1021.0 hPa 0.0 l/m 6.0 km/h (2 Bft) O-NO 2.1 C 7.8 C
26.04.2004 09:00 10.7 C 57 % 1020.7 hPa 0.0 l/m 10.9 km/h (2 Bft) O 2.6 C 10.6 C
26.04.2004 10:00 12.8 C 52 % 1020.1 hPa 0.0 l/m 11.7 km/h (2 Bft) O-SO 3.2 C 12.8 C
26.04.2004 11:00 14.8 C 45 % 1019.1 hPa 0.0 l/m 19.5 km/h (3 Bft) O-SO 2.9 C 14.8 C
26.04.2004 12:00 16.4 C 40 % 1018.4 hPa 0.0 l/m 11.4 km/h (2 Bft) O 2.6 C 16.4 C
26.04.2004 13:00 17.9 C 38 % 1017.4 hPa 0.0 l/m 16.8 km/h (3 Bft) O-SO 3.3 C 17.9 C
26.04.2004 14:00 18.8 C 37 % 1016.5 hPa 0.0 l/m 17.2 km/h (3 Bft) O-SO 3.9 C 18.8 C
26.04.2004 15:00 19.3 C 37 % 1016.0 hPa 0.0 l/m 24.6 km/h (4 Bft) SO 4.1 C 19.3 C
26.04.2004 16:00 19.5 C 35 % 1015.3 hPa 0.0 l/m 21.9 km/h (4 Bft) O-SO 3.8 C 19.5 C
26.04.2004 17:00 19.4 C 36 % 1014.6 hPa 0.0 l/m 22.8 km/h (4 Bft) O-SO 3.8 C 19.4 C
26.04.2004 18:00 18.8 C 37 % 1014.4 hPa 0.0 l/m 18.1 km/h (3 Bft) O-SO 3.9 C 18.8 C
26.04.2004 19:00 17.6 C 41 % 1014.5 hPa 0.0 l/m 6.7 km/h (2 Bft) O 4.4 C 17.6 C
26.04.2004 20:00 15.6 C 48 % 1014.8 hPa 0.0 l/m 0.7 km/h (0 Bft) N-NO 4.6 C 15.6 C
26.04.2004 21:00 14.1 C 51 % 1016.0 hPa 0.0 l/m 1.3 km/h (1 Bft) N 4.2 C 14.1 C
26.04.2004 22:00 13.1 C 57 % 1015.4 hPa 0.0 l/m 1.2 km/h (1 Bft) N-NO 4.7 C 13.1 C
26.04.2004 23:00 10.5 C 67 % 1015.5 hPa 0.0 l/m 0.0 km/h (0 Bft) N 4.7 C 10.5 C
27.04.2004 00:00 8.8 C 74 % 1015.7 hPa 0.0 l/m 0.0 km/h (0 Bft) N 4.5 C 8.8 C
27.04.2004 01:00 7.3 C 82 % 1015.9 hPa 0.0 l/m 1.5 km/h (1 Bft) O-SO 4.4 C 7.2 C
27.04.2004 02:00 6.5 C 87 % 1015.5 hPa 0.0 l/m 3.6 km/h (1 Bft) O-SO 4.5 C 6.2 C
27.04.2004 03:00 5.8 C 92 % 1015.1 hPa 0.0 l/m 2.4 km/h (1 Bft) O-SO 4.5 C 5.4 C
27.04.2004 04:00 5.1 C 95 % 1015.2 hPa 0.0 l/m 0.5 km/h (0 Bft) O-SO 4.4 C 5.1 C
27.04.2004 05:00 4.5 C 97 % 1015.3 hPa 0.0 l/m 0.0 km/h (0 Bft) N 4.1 C 4.5 C
27.04.2004 06:00 4.3 C 97 % 1015.3 hPa 0.0 l/m 0.0 km/h (0 Bft) N 3.9 C 4.3 C
27.04.2004 07:00 5.4 C 97 % 1015.2 hPa 0.0 l/m 0.0 km/h (0 Bft) N 5.0 C 5.4 C
27.04.2004 08:00 7.2 C 85 % 1014.9 hPa 0.0 l/m 0.0 km/h (0 Bft) N 4.8 C 7.2 C
27.04.2004 09:00 9.4 C 73 % 1014.6 hPa 0.0 l/m 0.7 km/h (0 Bft) W-NW 4.7 C 9.4 C
27.04.2004 10:00 12.6 C 59 % 1014.2 hPa 0.0 l/m 2.7 km/h (1 Bft) W-NW 4.9 C 12.6 C
27.04.2004 11:00 15.6 C 53 % 1013.3 hPa 0.0 l/m 3.1 km/h (1 Bft) SO 6.1 C 15.6 C
27.04.2004 12:00 18.4 C 45 % 1012.3 hPa 0.0 l/m 4.8 km/h (1 Bft) O-SO 6.4 C 18.4 C
27.04.2004 13:00 20.5 C 40 % 1011.1 hPa 0.0 l/m 2.2 km/h (1 Bft) O-SO 6.3 C 20.5 C
27.04.2004 14:00 22.6 C 33 % 1009.9 hPa 0.0 l/m 6.4 km/h (2 Bft) SO 5.3 C 22.6 C
27.04.2004 15:00 23.7 C 30 % 1009.5 hPa 0.0 l/m 7.7 km/h (2 Bft) SO 5.3 C 23.7 C
27.04.2004 16:00 24.2 C 30 % 1008.5 hPa 0.0 l/m 8.0 km/h (2 Bft) O-SO 5.6 C 24.2 C
27.04.2004 17:00 23.6 C 32 % 1008.5 hPa 0.0 l/m 6.4 km/h (2 Bft) N-NO 6.0 C 23.6 C
27.04.2004 18:00 21.1 C 36 % 1008.2 hPa 0.0 l/m 5.0 km/h (1 Bft) O 5.3 C 21.1 C
27.04.2004 19:00 19.2 C 44 % 1008.1 hPa 0.0 l/m 1.1 km/h (0 Bft) W-NW 6.7 C 19.2 C
27.04.2004 20:00 17.0 C 56 % 1009.4 hPa 0.0 l/m 0.0 km/h (0 Bft) N 8.1 C 17.0 C
27.04.2004 21:00 15.1 C 64 % 1009.7 hPa 0.0 l/m 0.0 km/h (0 Bft) N 8.2 C 15.1 C
27.04.2004 22:00 14.2 C 69 % 1009.8 hPa 0.0 l/m 0.7 km/h (0 Bft) SO 8.5 C 14.2 C
27.04.2004 23:00 13.6 C 74 % 1009.9 hPa 0.0 l/m 0.7 km/h (0 Bft) O-SO 9.0 C 13.6 C
28.04.2004 00:00 11.8 C 80 % 1010.2 hPa 0.0 l/m 0.0 km/h (0 Bft) N 8.5 C 11.8 C
28.04.2004 01:00 11.2 C 84 % 1010.8 hPa 0.0 l/m 0.3 km/h (0 Bft) O-SO 8.7 C 11.2 C
28.04.2004 02:00 10.6 C 85 % 1010.3 hPa 0.0 l/m 0.3 km/h (0 Bft) O-SO 8.2 C 10.6 C
28.04.2004 03:00 10.2 C 88 % 1010.3 hPa 0.0 l/m 0.2 km/h (0 Bft) O-SO 8.4 C 10.2 C
28.04.2004 04:00 9.7 C 92 % 1010.4 hPa 0.0 l/m 0.5 km/h (0 Bft) O-SO 8.5 C 9.7 C
28.04.2004 05:00 8.7 C 96 % 1010.6 hPa 0.0 l/m 1.0 km/h (0 Bft) O-SO 8.1 C 8.6 C
28.04.2004 06:00 7.8 C 99 % 1010.8 hPa 0.0 l/m 0.0 km/h (0 Bft) N 7.6 C 7.8 C
28.04.2004 07:00 9.1 C 99 % 1011.5 hPa 0.0 l/m 0.4 km/h (0 Bft) O-SO 8.9 C 9.1 C
28.04.2004 08:00 10.5 C 87 % 1011.3 hPa 0.0 l/m 0.0 km/h (0 Bft) N 8.4 C 10.5 C
28.04.2004 09:00 12.7 C 73 % 1010.9 hPa 0.0 l/m 0.2 km/h (0 Bft) W 8.0 C 12.7 C
28.04.2004 10:00 16.1 C 62 % 1009.6 hPa 0.0 l/m 1.6 km/h (1 Bft) O-SO 8.7 C 16.1 C
28.04.2004 11:00 18.9 C 48 % 1008.6 hPa 0.0 l/m 2.2 km/h (1 Bft) W-NW 7.5 C 18.9 C
28.04.2004 12:00 21.1 C 37 % 1007.7 hPa 0.0 l/m 3.6 km/h (1 Bft) O-SO 5.6 C 21.1 C
28.04.2004 13:00 23.2 C 30 % 1006.5 hPa 0.0 l/m 9.4 km/h (2 Bft) O-SO 4.6 C 23.2 C
28.04.2004 14:00 24.3 C 27 % 1005.4 hPa 0.0 l/m 5.3 km/h (1 Bft) O-SO 4.0 C 24.3 C
28.04.2004 15:00 24.3 C 29 % 1004.7 hPa 0.0 l/m 8.7 km/h (2 Bft) O-SO 4.9 C 24.3 C
28.04.2004 16:00 23.3 C 29 % 1004.5 hPa 0.0 l/m 1.5 km/h (1 Bft) O 4.4 C 23.3 C
28.04.2004 17:00 23.0 C 30 % 1003.7 hPa 0.0 l/m 0.2 km/h (0 Bft) NO 4.7 C 23.0 C
28.04.2004 18:00 21.4 C 36 % 1003.7 hPa 0.0 l/m 0.3 km/h (0 Bft) N 5.6 C 21.4 C
28.04.2004 19:00 19.7 C 40 % 1003.9 hPa 0.0 l/m 1.8 km/h (1 Bft) W-NW 5.8 C 19.7 C
28.04.2004 20:00 17.6 C 45 % 1005.0 hPa 0.0 l/m 0.6 km/h (0 Bft) W-NW 5.4 C 17.6 C
28.04.2004 21:00 15.7 C 51 % 1005.6 hPa 0.0 l/m 6.5 km/h (2 Bft) W-NW 5.5 C 15.7 C
28.04.2004 22:00 13.7 C 64 % 1006.8 hPa 0.0 l/m 3.6 km/h (1 Bft) W 7.0 C 13.7 C
28.04.2004 23:00 12.2 C 70 % 1007.0 hPa 0.0 l/m 0.6 km/h (0 Bft) NW 6.9 C 12.2 C
29.04.2004 00:00 11.6 C 75 % 1007.2 hPa 0.0 l/m 1.3 km/h (1 Bft) W 7.3 C 11.6 C
29.04.2004 01:00 11.2 C 78 % 1008.1 hPa 0.0 l/m 1.0 km/h (0 Bft) O-NO 7.5 C 11.2 C
29.04.2004 02:00 10.1 C 84 % 1008.2 hPa 0.0 l/m 0.1 km/h (0 Bft) N 7.5 C 10.1 C
29.04.2004 03:00 9.5 C 87 % 1007.7 hPa 0.0 l/m 0.8 km/h (0 Bft) O-SO 7.4 C 9.5 C
29.04.2004 04:00 8.4 C 92 % 1007.5 hPa 0.0 l/m 2.2 km/h (1 Bft) O-SO 7.1 C 8.1 C
29.04.2004 05:00 7.8 C 96 % 1007.6 hPa 0.0 l/m 1.4 km/h (1 Bft) O-SO 7.2 C 7.6 C
29.04.2004 06:00 7.8 C 97 % 1007.6 hPa 0.0 l/m 0.5 km/h (0 Bft) O-SO 7.3 C 7.7 C
29.04.2004 07:00 8.1 C 95 % 1007.3 hPa 0.0 l/m 0.1 km/h (0 Bft) N 7.5 C 8.1 C
29.04.2004 08:00 9.8 C 87 % 1006.3 hPa 0.0 l/m 0.4 km/h (0 Bft) W 7.7 C 9.7 C
29.04.2004 09:00 12.7 C 74 % 1005.9 hPa 0.0 l/m 2.3 km/h (1 Bft) O-SO 8.0 C 12.7 C
29.04.2004 10:00 15.6 C 62 % 1004.5 hPa 0.0 l/m 4.6 km/h (1 Bft) O-SO 8.3 C 15.6 C
29.04.2004 11:00 16.8 C 59 % 1003.5 hPa 0.0 l/m 4.6 km/h (1 Bft) O-SO 8.7 C 16.8 C
29.04.2004 12:00 18.7 C 52 % 1002.4 hPa 0.0 l/m 4.9 km/h (1 Bft) O-SO 8.5 C 18.7 C
29.04.2004 13:00 20.2 C 47 % 1001.0 hPa 0.0 l/m 1.8 km/h (1 Bft) O-NO 8.4 C 20.2 C
29.04.2004 14:00 22.8 C 37 % 1000.3 hPa 0.0 l/m 5.8 km/h (2 Bft) O 7.2 C 22.8 C
29.04.2004 15:00 23.8 C 33 % 999.2 hPa 0.0 l/m 6.7 km/h (2 Bft) O-SO 6.4 C 23.8 C
29.04.2004 16:00 24.4 C 31 % 998.2 hPa 0.0 l/m 6.8 km/h (2 Bft) O-SO 6.2 C 24.4 C
29.04.2004 17:00 24.3 C 31 % 997.7 hPa 0.0 l/m 7.0 km/h (2 Bft) O-SO 6.2 C 24.3 C
29.04.2004 18:00 23.1 C 31 % 997.2 hPa 0.0 l/m 5.4 km/h (1 Bft) O-SO 5.0 C 23.1 C
29.04.2004 19:00 20.3 C 36 % 997.6 hPa 0.0 l/m 0.0 km/h (0 Bft) N 4.7 C 20.3 C
29.04.2004 20:00 17.6 C 50 % 997.9 hPa 0.0 l/m 0.4 km/h (0 Bft) O 7.2 C 17.6 C
29.04.2004 21:00 15.1 C 59 % 998.3 hPa 0.0 l/m 1.9 km/h (1 Bft) O-SO 7.0 C 15.1 C
29.04.2004 22:00 12.9 C 67 % 998.5 hPa 0.0 l/m 1.3 km/h (1 Bft) O-SO 6.8 C 12.9 C
29.04.2004 23:00 11.8 C 75 % 997.7 hPa 0.0 l/m 0.9 km/h (0 Bft) SO 7.5 C 11.8 C
30.04.2004 00:00 12.0 C 74 % 997.6 hPa 0.0 l/m 0.0 km/h (0 Bft) N 7.5 C 12.0 C
30.04.2004 01:00 11.4 C 74 % 997.5 hPa 0.0 l/m 0.0 km/h (0 Bft) N 6.8 C 11.4 C
30.04.2004 02:00 11.6 C 69 % 996.7 hPa 0.0 l/m 0.1 km/h (0 Bft) W-NW 6.0 C 11.6 C
30.04.2004 03:00 11.5 C 69 % 996.7 hPa 0.0 l/m 0.0 km/h (0 Bft) N 6.0 C 11.5 C
30.04.2004 04:00 11.3 C 72 % 996.7 hPa 0.0 l/m 0.0 km/h (0 Bft) N 6.4 C 11.3 C
30.04.2004 05:00 10.7 C 75 % 996.8 hPa 0.0 l/m 0.0 km/h (0 Bft) N 6.4 C 10.7 C
30.04.2004 06:00 10.8 C 77 % 996.8 hPa 0.0 l/m 0.0 km/h (0 Bft) N 6.9 C 10.8 C
30.04.2004 07:00 10.8 C 78 % 996.8 hPa 0.0 l/m 0.0 km/h (0 Bft) N 7.1 C 10.8 C
30.04.2004 08:00 11.4 C 76 % 996.7 hPa 0.0 l/m 0.0 km/h (0 Bft) N 7.3 C 11.4 C
30.04.2004 09:00 12.6 C 70 % 996.5 hPa 0.0 l/m 2.0 km/h (1 Bft) O-SO 7.3 C 12.6 C
30.04.2004 10:00 13.6 C 65 % 997.4 hPa 0.0 l/m 0.8 km/h (0 Bft) S 7.1 C 13.6 C
30.04.2004 11:00 14.7 C 61 % 997.5 hPa 0.0 l/m 0.0 km/h (0 Bft) N 7.2 C 14.7 C
30.04.2004 12:00 15.8 C 59 % 998.2 hPa 0.0 l/m 4.6 km/h (1 Bft) NW 7.8 C 15.8 C
30.04.2004 13:00 16.3 C 63 % 998.5 hPa 0.0 l/m 18.1 km/h (3 Bft) W-NW 9.2 C 16.3 C
30.04.2004 14:00 17.1 C 59 % 999.0 hPa 0.0 l/m 16.3 km/h (3 Bft) NW 9.1 C 17.1 C
30.04.2004 15:00 17.8 C 54 % 998.9 hPa 0.0 l/m 17.9 km/h (3 Bft) NW 8.5 C 17.8 C
30.04.2004 16:00 20.6 C 45 % 998.6 hPa 0.0 l/m 15.8 km/h (3 Bft) W-NW 8.1 C 20.6 C
30.04.2004 17:00 21.7 C 43 % 998.5 hPa 0.0 l/m 10.6 km/h (2 Bft) W-NW 8.6 C 21.7 C
30.04.2004 18:00 20.0 C 45 % 999.7 hPa 0.0 l/m 14.7 km/h (3 Bft) W-NW 7.7 C 20.0 C
30.04.2004 19:00 16.8 C 55 % 1000.4 hPa 0.0 l/m 22.8 km/h (4 Bft) NW 7.6 C 16.8 C
30.04.2004 20:00 14.2 C 67 % 1001.5 hPa 0.0 l/m 8.2 km/h (2 Bft) W 8.1 C 14.2 C
30.04.2004 21:00 13.2 C 78 % 1002.7 hPa 0.0 l/m 4.3 km/h (1 Bft) W-NW 9.5 C 13.2 C
30.04.2004 22:00 11.9 C 86 % 1003.1 hPa 0.0 l/m 2.5 km/h (1 Bft) W-NW 9.7 C 11.9 C
30.04.2004 23:00 10.9 C 89 % 1004.0 hPa 0.0 l/m 0.0 km/h (0 Bft) N 9.2 C 10.9 C
01.05.2004 00:00 10.5 C 92 % 1004.1 hPa 0.0 l/m 2.1 km/h (1 Bft) O-SO 9.2 C 10.5 C
01.05.2004 01:00 9.4 C 96 % 1004.5 hPa 0.0 l/m 3.1 km/h (1 Bft) O-SO 8.7 C 9.1 C
01.05.2004 02:00 8.6 C 98 % 1005.4 hPa 0.0 l/m 3.7 km/h (1 Bft) O-SO 8.3 C 8.4 C
01.05.2004 03:00 8.1 C 100 % 1005.4 hPa 0.0 l/m 0.3 km/h (0 Bft) N 8.1 C 8.1 C
01.05.2004 04:00 8.5 C 100 % 1006.3 hPa 0.0 l/m 0.0 km/h (0 Bft) N 8.5 C 8.5 C
01.05.2004 05:00 9.8 C 99 % 1006.4 hPa 0.0 l/m 6.5 km/h (2 Bft) NW 9.6 C 9.6 C
01.05.2004 06:00 10.9 C 86 % 1007.1 hPa 0.3 l/m 20.6 km/h (4 Bft) NW 8.7 C 10.9 C
01.05.2004 07:00 11.0 C 79 % 1008.0 hPa 0.0 l/m 22.0 km/h (4 Bft) NW 7.4 C 11.0 C
01.05.2004 08:00 11.3 C 70 % 1008.2 hPa 0.0 l/m 17.4 km/h (3 Bft) NW 6.1 C 11.3 C
01.05.2004 09:00 11.6 C 70 % 1008.9 hPa 0.0 l/m 15.3 km/h (3 Bft) NW 6.4 C 11.6 C
01.05.2004 10:00 12.6 C 64 % 1009.0 hPa 0.0 l/m 12.8 km/h (3 Bft) W-NW 6.0 C 12.6 C
01.05.2004 11:00 12.6 C 63 % 1009.0 hPa 0.0 l/m 12.6 km/h (3 Bft) W-NW 5.7 C 12.6 C
01.05.2004 12:00 12.4 C 60 % 1009.0 hPa 0.0 l/m 13.5 km/h (3 Bft) W-NW 4.9 C 12.4 C
01.05.2004 13:00 13.3 C 57 % 1008.9 hPa 0.0 l/m 11.6 km/h (2 Bft) W-NW 4.9 C 13.3 C
01.05.2004 14:00 14.9 C 49 % 1008.7 hPa 0.0 l/m 14.8 km/h (3 Bft) W-NW 4.1 C 14.9 C
01.05.2004 15:00 16.1 C 42 % 1008.5 hPa 0.0 l/m 19.2 km/h (3 Bft) NW 3.2 C 16.1 C
01.05.2004 16:00 15.9 C 44 % 1008.5 hPa 0.0 l/m 18.9 km/h (3 Bft) W-NW 3.6 C 15.9 C
01.05.2004 17:00 17.5 C 39 % 1008.3 hPa 0.0 l/m 20.5 km/h (4 Bft) W-NW 3.5 C 17.5 C
01.05.2004 18:00 17.4 C 43 % 1008.4 hPa 0.0 l/m 11.9 km/h (2 Bft) W-NW 4.7 C 17.4 C
01.05.2004 19:00 15.9 C 46 % 1008.6 hPa 0.0 l/m 9.3 km/h (2 Bft) W-NW 4.3 C 15.9 C
01.05.2004 20:00 13.4 C 54 % 1009.5 hPa 0.0 l/m 2.8 km/h (1 Bft) W-NW 4.3 C 13.4 C
01.05.2004 21:00 11.1 C 64 % 1010.2 hPa 0.0 l/m 3.8 km/h (1 Bft) O-SO 4.5 C 11.1 C
01.05.2004 22:00 10.8 C 69 % 1010.3 hPa 0.0 l/m 0.0 km/h (0 Bft) N 5.3 C 10.8 C
01.05.2004 23:00 10.3 C 71 % 1011.1 hPa 0.0 l/m 0.0 km/h (0 Bft) N 5.3 C 10.3 C
02.05.2004 00:00 9.2 C 80 % 1011.5 hPa 0.0 l/m 0.1 km/h (0 Bft) N 5.8 C 9.2 C
02.05.2004 01:00 8.1 C 87 % 1011.7 hPa 0.0 l/m 0.9 km/h (0 Bft) SO 6.0 C 8.1 C
02.05.2004 02:00 7.3 C 89 % 1011.7 hPa 0.0 l/m 0.0 km/h (0 Bft) N 5.6 C 7.3 C
02.05.2004 03:00 7.0 C 96 % 1011.0 hPa 0.0 l/m 1.7 km/h (1 Bft) O 6.4 C 6.9 C
02.05.2004 04:00 7.6 C 93 % 1010.7 hPa 0.0 l/m 0.2 km/h (0 Bft) N 6.5 C 7.6 C
02.05.2004 05:00 7.7 C 92 % 1010.9 hPa 0.0 l/m 0.0 km/h (0 Bft) N 6.4 C 7.7 C
02.05.2004 06:00 7.7 C 94 % 1011.3 hPa 0.0 l/m 0.0 km/h (0 Bft) N 6.8 C 7.7 C
02.05.2004 07:00 8.8 C 87 % 1011.6 hPa 0.0 l/m 0.0 km/h (0 Bft) N 6.8 C 8.8 C
02.05.2004 08:00 9.9 C 78 % 1011.4 hPa 0.0 l/m 0.0 km/h (0 Bft) N 6.2 C 9.9 C
02.05.2004 09:00 11.6 C 70 % 1011.2 hPa 0.0 l/m 0.0 km/h (0 Bft) N 6.3 C 11.6 C
02.05.2004 10:00 13.9 C 59 % 1010.9 hPa 0.0 l/m 1.1 km/h (0 Bft) W-NW 5.9 C 13.9 C
02.05.2004 11:00 15.3 C 47 % 1010.7 hPa 0.0 l/m 0.5 km/h (0 Bft) O 4.0 C 15.3 C
02.05.2004 12:00 17.6 C 33 % 1009.8 hPa 0.0 l/m 2.5 km/h (1 Bft) SO 1.2 C 17.6 C
02.05.2004 13:00 18.6 C 30 % 1009.2 hPa 0.0 l/m 2.1 km/h (1 Bft) NW 0.9 C 18.6 C
02.05.2004 14:00 19.8 C 32 % 1008.6 hPa 0.0 l/m 3.8 km/h (1 Bft) NW 2.4 C 19.8 C
02.05.2004 15:00 20.6 C 31 % 1007.9 hPa 0.0 l/m 5.2 km/h (1 Bft) W-NW 2.7 C 20.6 C
02.05.2004 16:00 19.6 C 36 % 1008.1 hPa 0.0 l/m 8.6 km/h (2 Bft) NW 3.8 C 19.6 C
02.05.2004 17:00 18.5 C 40 % 1007.5 hPa 0.0 l/m 1.0 km/h (0 Bft) NW 4.8 C 18.5 C
02.05.2004 18:00 18.8 C 40 % 1007.1 hPa 0.0 l/m 3.2 km/h (1 Bft) NW 4.8 C 18.8 C
02.05.2004 19:00 18.1 C 44 % 1007.2 hPa 0.0 l/m 0.4 km/h (0 Bft) W-NW 5.7 C 18.1 C
02.05.2004 20:00 14.6 C 57 % 1007.8 hPa 0.0 l/m 5.6 km/h (1 Bft) O-SO 6.1 C 14.6 C
02.05.2004 21:00 12.8 C 67 % 1008.7 hPa 0.0 l/m 1.7 km/h (1 Bft) O 6.7 C 12.8 C
02.05.2004 22:00 12.2 C 70 % 1009.0 hPa 0.0 l/m 1.2 km/h (1 Bft) O-SO 6.9 C 12.2 C
02.05.2004 23:00 10.9 C 75 % 1009.2 hPa 0.0 l/m 4.0 km/h (1 Bft) O-SO 6.7 C 10.9 C
Min-Datum _ 27.04.04 28.04.04 30.04.04 - 26.04.04 - 02.05.04 27.04.04
_ Min-Zeit 05:46 14:07 09:58 - 00:54 - 12:25 05:46
Minimum _ 3.9 C 26 % 996.4 hPa - 0.0 km/h (0 Bft) - -1.5 C 3.9 C
Max-Datum _ 28.04.04 28.04.04 26.04.04 01.05.04 30.04.04 - 01.05.04 28.04.04
_ Max-Zeit 14:49 06:49 01:12 06:28 19:25 - 05:49 14:49
Maximum _ 24.9 C 100 % 1024.2 hPa 0.3 l/m 44.4 km/h
NW (6 Bft)
- 10.6 C 24.9 C
Durchschnitt _ 13.8 C 63 % 1008.3 hPa #0.3 l/m 4.7 km/h (1 Bft) O-SO 6.0 C 13.8 C

Durchschnitt Minimum Temp.12.8 C
Durchschnitt Maximum Temp.14.8 C
© Kaiko 2004